sensor_id;sensor_type;location;lat;lon;timestamp;pressure;altitude;pressure_sealevel;temperature;humidity
57799;BME280;43626;53.866;30.298;2022-09-11T00:04:07;1020.2;;;9.7;70.4
57799;BME280;43626;53.866;30.298;2022-09-11T00:08:33;1020;;;9.8;70.6
57799;BME280;43626;53.866;30.298;2022-09-11T00:13:21;1019.9;;;9.8;70.6
57799;BME280;43626;53.866;30.298;2022-09-11T00:18:20;1019.9;;;9.8;70.6
57799;BME280;43626;53.866;30.298;2022-09-11T00:23:52;1019.8;;;9.8;70.1
57799;BME280;43626;53.866;30.298;2022-09-11T00:28:54;1019.6;;;9.8;70.1
57799;BME280;43626;53.866;30.298;2022-09-11T00:33:57;1019.5;;;9.8;70
57799;BME280;43626;53.866;30.298;2022-09-11T00:38:57;1019.5;;;9.8;70.1
57799;BME280;43626;53.866;30.298;2022-09-11T00:44:01;1019.4;;;9.8;69.9
57799;BME280;43626;53.866;30.298;2022-09-11T00:48:21;1019.3;;;9.8;70
57799;BME280;43626;53.866;30.298;2022-09-11T00:53:53;1019.3;;;9.8;70.9
57799;BME280;43626;53.866;30.298;2022-09-11T00:59:06;1019.2;;;9.8;71.3
57799;BME280;43626;53.866;30.298;2022-09-11T01:03:21;1019;;;9.8;71.4
57799;BME280;43626;53.866;30.298;2022-09-11T01:08:20;1019;;;9.8;71.5
57799;BME280;43626;53.866;30.298;2022-09-11T01:14:16;1018.9;;;9.8;71.5
57799;BME280;43626;53.866;30.298;2022-09-11T01:24:15;1018.8;;;9.9;71.3
57799;BME280;43626;53.866;30.298;2022-09-11T01:28:48;1018.7;;;9.9;71.2
57799;BME280;43626;53.866;30.298;2022-09-11T01:34:04;1018.7;;;9.9;71.1
57799;BME280;43626;53.866;30.298;2022-09-11T01:39:06;1018.6;;;10;70.9
57799;BME280;43626;53.866;30.298;2022-09-11T01:43:43;1018.5;;;10;71.2
57799;BME280;43626;53.866;30.298;2022-09-11T01:48:40;1018.4;;;10;71.5
57799;BME280;43626;53.866;30.298;2022-09-11T01:53:32;1018.3;;;10;71.9
57799;BME280;43626;53.866;30.298;2022-09-11T01:58:32;1018.1;;;10;71.9
57799;BME280;43626;53.866;30.298;2022-09-11T02:03:35;1018.1;;;10;72.1
57799;BME280;43626;53.866;30.298;2022-09-11T02:08:49;1018;;;10;72.1
57799;BME280;43626;53.866;30.298;2022-09-11T02:14:14;1017.9;;;10;72
57799;BME280;43626;53.866;30.298;2022-09-11T02:18:59;1017.8;;;10;71.8
57799;BME280;43626;53.866;30.298;2022-09-11T02:23:46;1017.6;;;10;71.7
57799;BME280;43626;53.866;30.298;2022-09-11T02:29:08;1017.5;;;10;71.6
57799;BME280;43626;53.866;30.298;2022-09-11T02:33:54;1017.5;;;10;71.7
57799;BME280;43626;53.866;30.298;2022-09-11T02:39:13;1017.4;;;10;71.9
57799;BME280;43626;53.866;30.298;2022-09-11T02:43:32;1017.4;;;9.9;72.5
57799;BME280;43626;53.866;30.298;2022-09-11T02:49:09;1017.4;;;9.9;72.9
57799;BME280;43626;53.866;30.298;2022-09-11T02:54:16;1017.4;;;10;73.1
57799;BME280;43626;53.866;30.298;2022-09-11T02:58:59;1017.4;;;10;73.1
57799;BME280;43626;53.866;30.298;2022-09-11T03:03:37;1017.3;;;10.1;73
57799;BME280;43626;53.866;30.298;2022-09-11T03:09:11;1017.2;;;10.1;72.8
57799;BME280;43626;53.866;30.298;2022-09-11T03:13:54;1017.1;;;10.2;72.6
57799;BME280;43626;53.866;30.298;2022-09-11T03:18:42;1017.1;;;10.2;72.5
57799;BME280;43626;53.866;30.298;2022-09-11T03:23:22;1017.1;;;10.2;72.5
57799;BME280;43626;53.866;30.298;2022-09-11T03:29:08;1017;;;10.2;72.5
57799;BME280;43626;53.866;30.298;2022-09-11T03:33:54;1017;;;10.2;72.4
57799;BME280;43626;53.866;30.298;2022-09-11T03:38:22;1016.9;;;10.2;72.7
57799;BME280;43626;53.866;30.298;2022-09-11T03:44:10;1016.9;;;10.2;73
57799;BME280;43626;53.866;30.298;2022-09-11T03:49:08;1016.8;;;10.2;73.1
57799;BME280;43626;53.866;30.298;2022-09-11T03:54:09;1016.8;;;10.2;73.2
57799;BME280;43626;53.866;30.298;2022-09-11T03:58:44;1016.7;;;10.2;73.2
57799;BME280;43626;53.866;30.298;2022-09-11T04:04:08;1016.7;;;10.2;73.1
57799;BME280;43626;53.866;30.298;2022-09-11T04:09:10;1016.6;;;10.2;73.1
57799;BME280;43626;53.866;30.298;2022-09-11T04:13:31;1016.6;;;10.3;72.8
57799;BME280;43626;53.866;30.298;2022-09-11T04:18:43;1016.6;;;10.3;72.7
57799;BME280;43626;53.866;30.298;2022-09-11T04:23:22;1016.6;;;10.3;72.6
57799;BME280;43626;53.866;30.298;2022-09-11T04:28:32;1016.6;;;10.3;72.6
57799;BME280;43626;53.866;30.298;2022-09-11T04:33:33;1016.5;;;10.3;72.7
57799;BME280;43626;53.866;30.298;2022-09-11T04:38:47;1016.5;;;10.3;73
57799;BME280;43626;53.866;30.298;2022-09-11T04:44:10;1016.5;;;10.3;73.4
57799;BME280;43626;53.866;30.298;2022-09-11T04:48:53;1016.5;;;10.3;73.4
57799;BME280;43626;53.866;30.298;2022-09-11T04:53:45;1016.5;;;10.3;73.5
57799;BME280;43626;53.866;30.298;2022-09-11T04:59:15;1016.4;;;10.3;73.5
57799;BME280;43626;53.866;30.298;2022-09-11T05:03:53;1016.5;;;10.4;73.2
57799;BME280;43626;53.866;30.298;2022-09-11T05:09:10;1016.4;;;10.4;73
57799;BME280;43626;53.866;30.298;2022-09-11T05:13:33;1016.4;;;10.4;72.9
57799;BME280;43626;53.866;30.298;2022-09-11T05:18:35;1016.4;;;10.4;72.8
57799;BME280;43626;53.866;30.298;2022-09-11T05:23:32;1016.3;;;10.4;72.8
57799;BME280;43626;53.866;30.298;2022-09-11T05:29:12;1016.3;;;10.4;72.9
57799;BME280;43626;53.866;30.298;2022-09-11T05:33:57;1016.3;;;10.4;73.1
57799;BME280;43626;53.866;30.298;2022-09-11T05:38:58;1016.3;;;10.4;73.1
57799;BME280;43626;53.866;30.298;2022-09-11T05:44:01;1016.3;;;10.5;73.4
57799;BME280;43626;53.866;30.298;2022-09-11T05:48:52;1016.2;;;10.5;73.2
57799;BME280;43626;53.866;30.298;2022-09-11T05:53:54;1016.2;;;10.5;73
57799;BME280;43626;53.866;30.298;2022-09-11T05:59:11;1016.1;;;10.5;73.1
57799;BME280;43626;53.866;30.298;2022-09-11T06:03:22;1016.1;;;10.6;73
57799;BME280;43626;53.866;30.298;2022-09-11T06:08:22;1016.2;;;10.6;72.9
57799;BME280;43626;53.866;30.298;2022-09-11T06:13:24;1016.2;;;10.7;72.8
57799;BME280;43626;53.866;30.298;2022-09-11T06:19:13;1016.2;;;10.7;72.8
57799;BME280;43626;53.866;30.298;2022-09-11T06:23:59;1016.2;;;10.7;72.8
57799;BME280;43626;53.866;30.298;2022-09-11T06:28:23;1016.2;;;10.6;73
57799;BME280;43626;53.866;30.298;2022-09-11T06:33:47;1016.2;;;10.6;73.3
57799;BME280;43626;53.866;30.298;2022-09-11T06:38:59;1016.2;;;10.6;73.4
57799;BME280;43626;53.866;30.298;2022-09-11T06:44:11;1016.2;;;10.6;73.6
57799;BME280;43626;53.866;30.298;2022-09-11T06:48:43;1016.2;;;10.7;73.7
57799;BME280;43626;53.866;30.298;2022-09-11T06:53:23;1016.2;;;10.7;73.4
57799;BME280;43626;53.866;30.298;2022-09-11T06:58:23;1016.2;;;10.7;73.4
57799;BME280;43626;53.866;30.298;2022-09-11T07:03:23;1016.2;;;10.8;73.3
57799;BME280;43626;53.866;30.298;2022-09-11T07:08:48;1016.2;;;10.8;73.2
57799;BME280;43626;53.866;30.298;2022-09-11T07:13:49;1016.2;;;10.9;73.1
57799;BME280;43626;53.866;30.298;2022-09-11T07:18:55;1016.2;;;10.9;73
57799;BME280;43626;53.866;30.298;2022-09-11T07:24:13;1016.2;;;10.9;73.2
57799;BME280;43626;53.866;30.298;2022-09-11T07:28:47;1016.2;;;10.9;73.3
57799;BME280;43626;53.866;30.298;2022-09-11T07:34:11;1016.2;;;11;73.3
57799;BME280;43626;53.866;30.298;2022-09-11T07:39:13;1016.2;;;11;73.3
57799;BME280;43626;53.866;30.298;2022-09-11T07:43:23;1016.1;;;11;73.3
57799;BME280;43626;53.866;30.298;2022-09-11T07:48:23;1016.1;;;11;73.2
57799;BME280;43626;53.866;30.298;2022-09-11T07:53:23;1016.1;;;11.1;73.3
57799;BME280;43626;53.866;30.298;2022-09-11T07:59:11;1016.1;;;11.2;73
57799;BME280;43626;53.866;30.298;2022-09-11T08:04:00;1016.1;;;11.2;72.9
57799;BME280;43626;53.866;30.298;2022-09-11T08:09:00;1016.1;;;11.2;72.9
57799;BME280;43626;53.866;30.298;2022-09-11T08:14:01;1016;;;11.3;72.8
57799;BME280;43626;53.866;30.298;2022-09-11T08:18:57;1016;;;11.3;72.9
57799;BME280;43626;53.866;30.298;2022-09-11T08:23:23;1016;;;11.3;73.1
57799;BME280;43626;53.866;30.298;2022-09-11T08:28:57;1016;;;11.4;73.1
57799;BME280;43626;53.866;30.298;2022-09-11T08:34:13;1016;;;11.4;73
57799;BME280;43626;53.866;30.298;2022-09-11T08:38:23;1016;;;11.4;73.1
57799;BME280;43626;53.866;30.298;2022-09-11T08:43:44;1016;;;11.5;73.1
57799;BME280;43626;53.866;30.298;2022-09-11T08:49:22;1016;;;11.5;72.9
57799;BME280;43626;53.866;30.298;2022-09-11T08:53:59;1016;;;11.5;73
57799;BME280;43626;53.866;30.298;2022-09-11T08:59:19;1015.9;;;11.6;72.8
57799;BME280;43626;53.866;30.298;2022-09-11T09:04:31;1016;;;11.6;72.7
57799;BME280;43626;53.866;30.298;2022-09-11T09:08:54;1016;;;11.6;72.7
57799;BME280;43626;53.866;30.298;2022-09-11T09:15:06;1016.1;;;11.6;72.5
57799;BME280;43626;53.866;30.298;2022-09-11T09:18:30;1016.1;;;11.6;72.7
57799;BME280;43626;53.866;30.298;2022-09-11T09:23:24;1016.1;;;11.6;72.9
57799;BME280;43626;53.866;30.298;2022-09-11T09:28:34;1016.2;;;11.6;73
57799;BME280;43626;53.866;30.298;2022-09-11T09:33:32;1016.2;;;11.6;73
57799;BME280;43626;53.866;30.298;2022-09-11T09:38:45;1016.2;;;11.6;72.8
57799;BME280;43626;53.866;30.298;2022-09-11T09:43:27;1016.2;;;11.6;72.7
57799;BME280;43626;53.866;30.298;2022-09-11T09:49:12;1016.2;;;11.6;73
57799;BME280;43626;53.866;30.298;2022-09-11T09:53:58;1016.3;;;11.6;73.2
57799;BME280;43626;53.866;30.298;2022-09-11T09:58:38;1016.3;;;11.6;73.3
57799;BME280;43626;53.866;30.298;2022-09-11T10:04:15;1016.2;;;11.7;73.5
57799;BME280;43626;53.866;30.298;2022-09-11T10:08:55;1016.2;;;11.7;73.1
57799;BME280;43626;53.866;30.298;2022-09-11T10:14:13;1016.3;;;11.8;73.2
57799;BME280;43626;53.866;30.298;2022-09-11T10:18:39;1016.3;;;11.9;72.9
57799;BME280;43626;53.866;30.298;2022-09-11T10:23:24;1016.4;;;11.9;72.8
57799;BME280;43626;53.866;30.298;2022-09-11T10:29:13;1016.4;;;12;72.7
57799;BME280;43626;53.866;30.298;2022-09-11T10:33:57;1016.5;;;12;72.6
57799;BME280;43626;53.866;30.298;2022-09-11T10:38:49;1016.4;;;12.1;72.5
57799;BME280;43626;53.866;30.298;2022-09-11T10:44:00;1016.3;;;12.1;72.5
57799;BME280;43626;53.866;30.298;2022-09-11T10:49:05;1016.4;;;12.1;72.2
57799;BME280;43626;53.866;30.298;2022-09-11T10:53:55;1016.4;;;12.1;72.1
57799;BME280;43626;53.866;30.298;2022-09-11T10:58:59;1016.4;;;12.1;72.1
57799;BME280;43626;53.866;30.298;2022-09-11T11:04:13;1016.3;;;12.1;72
57799;BME280;43626;53.866;30.298;2022-09-11T11:19:16;1016.4;;;12.1;71.7
57799;BME280;43626;53.866;30.298;2022-09-11T11:24:19;1016.5;;;12.1;71.8
57799;BME280;43626;53.866;30.298;2022-09-11T11:29:46;1016.5;;;12.1;71.9
57799;BME280;43626;53.866;30.298;2022-09-11T11:33:51;1016.5;;;12.1;71.9
57799;BME280;43626;53.866;30.298;2022-09-11T11:39:16;1016.4;;;12.1;71.8
57799;BME280;43626;53.866;30.298;2022-09-11T11:44:14;1016.5;;;12.1;71.9
57799;BME280;43626;53.866;30.298;2022-09-11T11:48:48;1016.5;;;12;71.9
57799;BME280;43626;53.866;30.298;2022-09-11T11:58:50;1016.5;;;12;72.2
57799;BME280;43626;53.866;30.298;2022-09-11T12:03:24;1016.5;;;12.1;72
57799;BME280;43626;53.866;30.298;2022-09-11T12:08:31;1016.5;;;12.1;72
57799;BME280;43626;53.866;30.298;2022-09-11T12:13:47;1016.5;;;12.1;72
57799;BME280;43626;53.866;30.298;2022-09-11T12:19:13;1016.5;;;12.2;71.8
57799;BME280;43626;53.866;30.298;2022-09-11T12:28:35;1016.5;;;12.2;71.7
57799;BME280;43626;53.866;30.298;2022-09-11T12:34:14;1016.4;;;12.2;71.8
57799;BME280;43626;53.866;30.298;2022-09-11T12:38:59;1016.4;;;12.2;71.7
57799;BME280;43626;53.866;30.298;2022-09-11T12:44:29;1016.4;;;12.2;71.9
57799;BME280;43626;53.866;30.298;2022-09-11T12:48:24;1016.4;;;12.2;71.8
57799;BME280;43626;53.866;30.298;2022-09-11T12:53:34;1016.4;;;12.2;72
57799;BME280;43626;53.866;30.298;2022-09-11T12:59:17;1016.4;;;12.2;71.9
57799;BME280;43626;53.866;30.298;2022-09-11T13:03:57;1016.5;;;12.2;72
57799;BME280;43626;53.866;30.298;2022-09-11T13:08:35;1016.5;;;12.4;72.5
57799;BME280;43626;53.866;30.298;2022-09-11T13:14:01;1016.5;;;12.4;71.9
57799;BME280;43626;53.866;30.298;2022-09-11T13:18:59;1016.5;;;12.5;71.8
57799;BME280;43626;53.866;30.298;2022-09-11T13:23:45;1016.5;;;12.5;71.8
57799;BME280;43626;53.866;30.298;2022-09-11T13:28:59;1016.5;;;12.5;71.8
57799;BME280;43626;53.866;30.298;2022-09-11T13:34:12;1016.5;;;12.5;71.7
57799;BME280;43626;53.866;30.298;2022-09-11T13:38:33;1016.5;;;12.4;72
57799;BME280;43626;53.866;30.298;2022-09-11T13:43:24;1016.6;;;12.5;72.1
57799;BME280;43626;53.866;30.298;2022-09-11T13:49:17;1016.6;;;12.4;72.3
57799;BME280;43626;53.866;30.298;2022-09-11T13:54:11;1016.7;;;12.4;72.3
57799;BME280;43626;53.866;30.298;2022-09-11T14:00:34;1016.8;;;12.4;72.2
57799;BME280;43626;53.866;30.298;2022-09-11T14:04:01;1016.7;;;12.5;72.2
57799;BME280;43626;53.866;30.298;2022-09-11T14:09:14;1016.7;;;12.6;72
57799;BME280;43626;53.866;30.298;2022-09-11T14:14:17;1016.7;;;12.6;71.9
57799;BME280;43626;53.866;30.298;2022-09-11T14:18:47;1016.7;;;12.7;71.7
57799;BME280;43626;53.866;30.298;2022-09-11T14:23:46;1016.7;;;12.7;71.5
57799;BME280;43626;53.866;30.298;2022-09-11T14:28:39;1016.7;;;12.7;71
57799;BME280;43626;53.866;30.298;2022-09-11T14:33:23;1016.7;;;12.7;70.7
57799;BME280;43626;53.866;30.298;2022-09-11T14:38:23;1016.7;;;12.6;70.4
57799;BME280;43626;53.866;30.298;2022-09-11T14:43:47;1016.6;;;12.6;70.4
57799;BME280;43626;53.866;30.298;2022-09-11T14:48:47;1016.6;;;12.6;70.5
57799;BME280;43626;53.866;30.298;2022-09-11T14:53:57;1016.6;;;12.7;70.5
57799;BME280;43626;53.866;30.298;2022-09-11T14:59:13;1016.6;;;12.7;70.5
57799;BME280;43626;53.866;30.298;2022-09-11T15:03:47;1016.6;;;12.7;70.5
57799;BME280;43626;53.866;30.298;2022-09-11T15:09:13;1016.7;;;12.7;70.6
57799;BME280;43626;53.866;30.298;2022-09-11T15:14:11;1016.6;;;12.7;70.6
57799;BME280;43626;53.866;30.298;2022-09-11T15:18:23;1016.6;;;12.7;70.5
57799;BME280;43626;53.866;30.298;2022-09-11T15:23:33;1016.6;;;12.6;70.2
57799;BME280;43626;53.866;30.298;2022-09-11T15:28:47;1016.6;;;12.6;70
57799;BME280;43626;53.866;30.298;2022-09-11T15:34:08;1016.6;;;12.5;70
57799;BME280;43626;53.866;30.298;2022-09-11T15:38:57;1016.5;;;12.5;69.7
57799;BME280;43626;53.866;30.298;2022-09-11T15:43:47;1016.5;;;12.4;69.8
57799;BME280;43626;53.866;30.298;2022-09-11T15:49:11;1016.6;;;12.3;70.3
57799;BME280;43626;53.866;30.298;2022-09-11T15:53:58;1016.6;;;12.3;70.5
57799;BME280;43626;53.866;30.298;2022-09-11T15:58:33;1016.6;;;12.2;70.8
57799;BME280;43626;53.866;30.298;2022-09-11T16:04:00;1016.6;;;12.1;70.9
57799;BME280;43626;53.866;30.298;2022-09-11T16:08:33;1016.6;;;12;71.3
57799;BME280;43626;53.866;30.298;2022-09-11T16:13:33;1016.6;;;11.9;72
57799;BME280;43626;53.866;30.298;2022-09-11T16:18:43;1016.6;;;11.8;72.4
57799;BME280;43626;53.866;30.298;2022-09-11T16:24:13;1016.7;;;11.8;72.7
57799;BME280;43626;53.866;30.298;2022-09-11T16:28:59;1016.7;;;11.8;72.6
57799;BME280;43626;53.866;30.298;2022-09-11T16:33:45;1016.7;;;11.7;72.7
57799;BME280;43626;53.866;30.298;2022-09-11T16:38:47;1016.7;;;11.7;72.6
57799;BME280;43626;53.866;30.298;2022-09-11T16:44:01;1016.8;;;11.7;72.6
57799;BME280;43626;53.866;30.298;2022-09-11T16:49:14;1016.8;;;11.7;72.6
57799;BME280;43626;53.866;30.298;2022-09-11T16:53:45;1016.8;;;11.7;72.5
57799;BME280;43626;53.866;30.298;2022-09-11T16:58:23;1016.7;;;11.7;72.5
57799;BME280;43626;53.866;30.298;2022-09-11T17:03:33;1016.7;;;11.7;72.3
57799;BME280;43626;53.866;30.298;2022-09-11T17:08:35;1016.7;;;11.5;72.3
57799;BME280;43626;53.866;30.298;2022-09-11T17:13:47;1016.7;;;11.4;72.7
57799;BME280;43626;53.866;30.298;2022-09-11T17:18:50;1016.6;;;11.3;72.8
57799;BME280;43626;53.866;30.298;2022-09-11T17:23:45;1016.6;;;11.2;73
57799;BME280;43626;53.866;30.298;2022-09-11T17:29:13;1016.6;;;11.2;73
57799;BME280;43626;53.866;30.298;2022-09-11T17:33:55;1016.6;;;11.2;73
57799;BME280;43626;53.866;30.298;2022-09-11T17:39:11;1016.6;;;11.1;72.8
57799;BME280;43626;53.866;30.298;2022-09-11T17:44:11;1016.6;;;11.1;73.1
57799;BME280;43626;53.866;30.298;2022-09-11T17:48:23;1016.7;;;11;73.2
57799;BME280;43626;53.866;30.298;2022-09-11T17:53:23;1016.7;;;11;73.3
57799;BME280;43626;53.866;30.298;2022-09-11T17:58:33;1016.7;;;11.1;72.9
57799;BME280;43626;53.866;30.298;2022-09-11T18:04:11;1016.7;;;11.1;72.7
57799;BME280;43626;53.866;30.298;2022-09-11T18:08:45;1016.7;;;11.1;72.6
57799;BME280;43626;53.866;30.298;2022-09-11T18:13:59;1016.7;;;11.1;72.4
57799;BME280;43626;53.866;30.298;2022-09-11T18:18:59;1016.7;;;11.2;72.3
57799;BME280;43626;53.866;30.298;2022-09-11T18:23:58;1016.7;;;11.2;72.2
57799;BME280;43626;53.866;30.298;2022-09-11T18:28:43;1016.8;;;11.3;72
57799;BME280;43626;53.866;30.298;2022-09-11T18:33:59;1016.8;;;11.4;71.7
57799;BME280;43626;53.866;30.298;2022-09-11T18:38:35;1016.8;;;11.4;71.4
57799;BME280;43626;53.866;30.298;2022-09-11T18:43:43;1016.8;;;11.4;71.1
57799;BME280;43626;53.866;30.298;2022-09-11T18:48:35;1016.8;;;11.4;71
57799;BME280;43626;53.866;30.298;2022-09-11T18:54:13;1016.8;;;11.4;71
57799;BME280;43626;53.866;30.298;2022-09-11T18:59:13;1016.8;;;11.4;71
57799;BME280;43626;53.866;30.298;2022-09-11T19:04:13;1016.8;;;11.4;71
57799;BME280;43626;53.866;30.298;2022-09-11T19:08:45;1016.7;;;11.4;70.9
57799;BME280;43626;53.866;30.298;2022-09-11T19:14:02;1016.7;;;11.4;70.9
57799;BME280;43626;53.866;30.298;2022-09-11T19:19:11;1016.7;;;11.4;70.8
57799;BME280;43626;53.866;30.298;2022-09-11T19:23:34;1016.7;;;11.3;70.7
57799;BME280;43626;53.866;30.298;2022-09-11T19:28:45;1016.7;;;11.4;70.7
57799;BME280;43626;53.866;30.298;2022-09-11T19:33:34;1016.6;;;11.3;70.6
57799;BME280;43626;53.866;30.298;2022-09-11T19:38:46;1016.6;;;11.3;70.7
57799;BME280;43626;53.866;30.298;2022-09-11T19:44:00;1016.5;;;11.3;70.5
57799;BME280;43626;53.866;30.298;2022-09-11T19:48:23;1016.5;;;11.3;70.5
57799;BME280;43626;53.866;30.298;2022-09-11T19:54:11;1016.6;;;11.3;70.6
57799;BME280;43626;53.866;30.298;2022-09-11T19:58:55;1016.5;;;11.4;70.5
57799;BME280;43626;53.866;30.298;2022-09-11T20:03:23;1016.5;;;11.4;70.4
57799;BME280;43626;53.866;30.298;2022-09-11T20:09:11;1016.5;;;11.4;70.5
57799;BME280;43626;53.866;30.298;2022-09-11T20:14:11;1016.5;;;11.5;70.2
57799;BME280;43626;53.866;30.298;2022-09-11T20:19:11;1016.5;;;11.4;70.1
57799;BME280;43626;53.866;30.298;2022-09-11T20:23:37;1016.5;;;11.4;70.2
57799;BME280;43626;53.866;30.298;2022-09-11T20:28:35;1016.4;;;11.4;70.2
57799;BME280;43626;53.866;30.298;2022-09-11T20:34:11;1016.4;;;11.4;69.8
57799;BME280;43626;53.866;30.298;2022-09-11T20:38:57;1016.4;;;11.3;70
57799;BME280;43626;53.866;30.298;2022-09-11T20:43:47;1016.3;;;11.3;70.2
57799;BME280;43626;53.866;30.298;2022-09-11T20:49:02;1016.3;;;11.3;70.2
57799;BME280;43626;53.866;30.298;2022-09-11T20:53:57;1016.2;;;11.3;69.9
57799;BME280;43626;53.866;30.298;2022-09-11T20:58:51;1016.1;;;11.2;69.8
57799;BME280;43626;53.866;30.298;2022-09-11T21:03:59;1016.1;;;11.1;70.1
57799;BME280;43626;53.866;30.298;2022-09-11T21:09:11;1016.1;;;10.9;70.5
57799;BME280;43626;53.866;30.298;2022-09-11T21:13:36;1016.1;;;10.9;70.6
57799;BME280;43626;53.866;30.298;2022-09-11T21:18:33;1016.1;;;10.8;70.7
57799;BME280;43626;53.866;30.298;2022-09-11T21:24:03;1016.2;;;10.8;70.7
57799;BME280;43626;53.866;30.298;2022-09-11T21:29:13;1016.2;;;10.8;70.8
57799;BME280;43626;53.866;30.298;2022-09-11T21:34:15;1016.2;;;10.8;71
57799;BME280;43626;53.866;30.298;2022-09-11T21:38:23;1016.2;;;10.8;70.9
57799;BME280;43626;53.866;30.298;2022-09-11T21:44:13;1016.3;;;10.8;70.9
57799;BME280;43626;53.866;30.298;2022-09-11T21:49:15;1016.3;;;10.9;70.5
57799;BME280;43626;53.866;30.298;2022-09-11T21:53:23;1016.3;;;10.8;70.3
57799;BME280;43626;53.866;30.298;2022-09-11T21:58:23;1016.3;;;10.7;70.6
57799;BME280;43626;53.866;30.298;2022-09-11T22:03:35;1016.3;;;10.8;70.7
57799;BME280;43626;53.866;30.298;2022-09-11T22:08:23;1016.3;;;10.8;70.5
57799;BME280;43626;53.866;30.298;2022-09-11T22:13:35;1016.3;;;10.8;70.4
57799;BME280;43626;53.866;30.298;2022-09-11T22:18:48;1016.3;;;10.8;70.4
57799;BME280;43626;53.866;30.298;2022-09-11T22:24:15;1016.3;;;10.8;70.3
57799;BME280;43626;53.866;30.298;2022-09-11T22:28:57;1016.2;;;10.7;70.5
57799;BME280;43626;53.866;30.298;2022-09-11T22:33:34;1016.2;;;10.7;70.3
57799;BME280;43626;53.866;30.298;2022-09-11T22:39:11;1016.2;;;10.7;70.4
57799;BME280;43626;53.866;30.298;2022-09-11T22:43:47;1016.2;;;10.6;70.5
57799;BME280;43626;53.866;30.298;2022-09-11T22:49:09;1016.2;;;10.6;70.8
57799;BME280;43626;53.866;30.298;2022-09-11T22:53:31;1016.1;;;10.6;70.7
57799;BME280;43626;53.866;30.298;2022-09-11T22:58:33;1016.1;;;10.5;70.9
57799;BME280;43626;53.866;30.298;2022-09-11T23:03:21;1016.1;;;10.6;70.8
57799;BME280;43626;53.866;30.298;2022-09-11T23:09:12;1016;;;10.6;70.6
57799;BME280;43626;53.866;30.298;2022-09-11T23:13:59;1016;;;10.6;70.7
57799;BME280;43626;53.866;30.298;2022-09-11T23:18:35;1016;;;10.6;70.7
57799;BME280;43626;53.866;30.298;2022-09-11T23:24:11;1016;;;10.6;70.6
57799;BME280;43626;53.866;30.298;2022-09-11T23:28:55;1016;;;10.5;70.8
57799;BME280;43626;53.866;30.298;2022-09-11T23:33:46;1016;;;10.5;71
57799;BME280;43626;53.866;30.298;2022-09-11T23:38:57;1016;;;10.5;71.1
57799;BME280;43626;53.866;30.298;2022-09-11T23:43:31;1016;;;10.6;70.9
57799;BME280;43626;53.866;30.298;2022-09-11T23:48:33;1016;;;10.5;70.9
57799;BME280;43626;53.866;30.298;2022-09-11T23:53:32;1016;;;10.5;71.1
57799;BME280;43626;53.866;30.298;2022-09-11T23:59:11;1016;;;10.4;71.1
